createdAt,value
2022-08-18T00:00:15.244Z,18.82
2022-08-18T00:01:10.981Z,18.83
2022-08-18T00:02:10.874Z,18.83
2022-08-18T00:03:27.111Z,18.86
2022-08-18T00:04:35.901Z,18.85
2022-08-18T00:05:10.915Z,18.85
2022-08-18T00:06:10.778Z,18.83
2022-08-18T00:07:10.918Z,18.83
2022-08-18T00:08:10.837Z,18.83
2022-08-18T00:09:10.727Z,18.88
2022-08-18T00:10:18.777Z,18.92
2022-08-18T00:11:10.928Z,18.91
2022-08-18T00:12:10.757Z,18.88
2022-08-18T00:13:10.917Z,18.85
2022-08-18T00:14:10.837Z,18.85
2022-08-18T00:15:10.647Z,18.82
2022-08-18T00:16:10.778Z,18.78
2022-08-18T00:17:10.937Z,18.74
2022-08-18T00:18:10.766Z,18.71
2022-08-18T00:19:10.616Z,18.70
2022-08-18T00:20:10.657Z,18.68
2022-08-18T00:21:10.614Z,18.66
2022-08-18T00:22:14.902Z,18.64
2022-08-18T00:23:10.602Z,18.61
2022-08-18T00:24:10.763Z,18.61
2022-08-18T00:25:10.592Z,18.60
2022-08-18T00:26:10.579Z,18.61
2022-08-18T00:27:10.606Z,18.61
2022-08-18T00:28:10.477Z,18.61
2022-08-18T00:29:10.596Z,18.58
2022-08-18T00:30:10.457Z,18.58
2022-08-18T00:31:10.598Z,18.57
2022-08-18T00:32:10.506Z,18.58
2022-08-18T00:33:10.606Z,18.58
2022-08-18T00:34:10.446Z,18.57
2022-08-18T00:35:10.377Z,18.58
2022-08-18T00:36:10.442Z,18.55
2022-08-18T00:37:10.422Z,18.53
2022-08-18T00:38:25.037Z,18.52
2022-08-18T00:39:10.601Z,18.53
2022-08-18T00:40:10.540Z,18.60
2022-08-18T00:41:10.302Z,18.64
2022-08-18T00:42:10.443Z,18.63
2022-08-18T00:43:10.341Z,18.61
2022-08-18T00:44:10.271Z,18.60
2022-08-18T00:45:10.288Z,18.60
2022-08-18T00:46:10.247Z,18.58
2022-08-18T00:47:10.288Z,18.55
2022-08-18T00:48:10.439Z,18.51
2022-08-18T00:49:10.356Z,18.49
2022-08-18T00:50:12.499Z,18.43
2022-08-18T00:51:10.278Z,18.42
2022-08-18T00:52:10.166Z,18.41
2022-08-18T00:53:10.287Z,18.36
2022-08-18T00:54:10.216Z,18.30
2022-08-18T00:55:10.151Z,18.26
2022-08-18T00:56:10.121Z,18.26
2022-08-18T00:57:10.289Z,18.21
2022-08-18T00:58:10.133Z,18.16
2022-08-18T00:59:10.081Z,18.13
2022-08-18T01:00:10.214Z,18.11
2022-08-18T01:01:10.080Z,18.08
2022-08-18T01:02:10.131Z,18.05
2022-08-18T01:03:10.021Z,18.02
2022-08-18T01:04:10.111Z,17.98
2022-08-18T01:05:10.013Z,17.98
2022-08-18T01:06:10.216Z,17.95
2022-08-18T01:07:09.976Z,17.93
2022-08-18T01:08:10.139Z,17.93
2022-08-18T01:09:09.966Z,17.90
2022-08-18T01:10:10.117Z,17.90
2022-08-18T01:11:09.957Z,17.91
2022-08-18T01:12:44.876Z,17.93
2022-08-18T01:13:09.976Z,17.94
2022-08-18T01:14:09.867Z,17.94
2022-08-18T01:15:09.975Z,17.95
2022-08-18T01:16:09.871Z,17.98
2022-08-18T01:17:10.042Z,18.06
2022-08-18T01:18:09.851Z,18.11
2022-08-18T01:19:09.978Z,18.12
2022-08-18T01:20:09.801Z,18.13
2022-08-18T01:21:09.792Z,18.11
2022-08-18T01:22:09.873Z,18.11
2022-08-18T01:23:09.755Z,18.11
2022-08-18T01:24:09.793Z,18.11
2022-08-18T01:25:09.757Z,18.11
2022-08-18T01:26:09.805Z,18.11
2022-08-18T01:27:09.967Z,18.13
2022-08-18T01:28:09.798Z,18.09
2022-08-18T01:29:09.702Z,18.09
2022-08-18T01:30:09.810Z,18.08
2022-08-18T01:31:09.966Z,18.06
2022-08-18T01:32:09.656Z,18.05
2022-08-18T01:33:09.636Z,18.05
2022-08-18T01:34:09.668Z,18.08
2022-08-18T01:35:09.660Z,18.06
2022-08-18T01:36:09.600Z,18.06
2022-08-18T01:37:09.640Z,18.09
2022-08-18T01:38:09.571Z,18.11
2022-08-18T01:39:09.651Z,18.09
2022-08-18T01:41:11.035Z,18.06
2022-08-18T01:41:31.371Z,18.06
2022-08-18T01:42:09.914Z,18.05
2022-08-18T01:43:09.640Z,18.03
2022-08-18T01:44:09.480Z,18.05
2022-08-18T01:45:09.536Z,18.02
2022-08-18T01:46:09.509Z,18.00
2022-08-18T01:47:09.635Z,17.98
2022-08-18T01:48:09.485Z,17.97
2022-08-18T01:49:09.425Z,17.95
2022-08-18T01:50:09.485Z,17.93
2022-08-18T01:51:09.456Z,17.91
2022-08-18T01:52:09.496Z,17.90
2022-08-18T01:53:09.636Z,17.90
2022-08-18T01:54:09.478Z,17.88
2022-08-18T01:55:09.392Z,17.91
2022-08-18T01:56:09.341Z,17.88
2022-08-18T01:57:09.391Z,17.87
2022-08-18T01:58:09.472Z,17.90
2022-08-18T01:59:09.321Z,17.90
2022-08-18T02:00:09.491Z,17.88
2022-08-18T02:01:09.322Z,17.88
2022-08-18T02:02:09.348Z,17.88
2022-08-18T02:03:09.396Z,17.88
2022-08-18T02:04:33.842Z,17.88
2022-08-18T02:05:09.321Z,17.88
2022-08-18T02:06:09.215Z,17.90
2022-08-18T02:07:09.185Z,17.88
2022-08-18T02:08:09.225Z,17.88
2022-08-18T02:09:09.317Z,17.87
2022-08-18T02:10:11.793Z,17.84
2022-08-18T02:11:09.327Z,17.86
2022-08-18T02:12:09.177Z,17.86
2022-08-18T02:13:09.377Z,17.86
2022-08-18T02:14:09.177Z,17.91
2022-08-18T02:15:09.320Z,17.90
2022-08-18T02:16:09.221Z,17.87
2022-08-18T02:17:09.343Z,17.86
2022-08-18T02:18:09.200Z,17.86
2022-08-18T02:19:09.109Z,17.82
2022-08-18T02:20:09.022Z,17.79
2022-08-18T02:21:10.351Z,17.78
2022-08-18T02:22:09.163Z,17.75
2022-08-18T02:23:09.002Z,17.73
2022-08-18T02:24:09.220Z,17.72
2022-08-18T02:25:09.041Z,17.72
2022-08-18T02:26:09.176Z,17.76
2022-08-18T02:27:09.049Z,17.80
2022-08-18T02:28:08.896Z,17.82
2022-08-18T02:29:08.995Z,17.80
2022-08-18T02:30:08.986Z,17.82
2022-08-18T02:31:08.998Z,17.80
2022-08-18T02:32:08.916Z,17.78
2022-08-18T02:33:09.016Z,17.72
2022-08-18T02:34:08.896Z,17.71
2022-08-18T02:35:11.554Z,17.73
2022-08-18T02:36:08.880Z,17.75
2022-08-18T02:37:13.107Z,17.80
2022-08-18T02:38:08.842Z,17.82
2022-08-18T02:39:08.750Z,17.86
2022-08-18T02:40:08.939Z,17.87
2022-08-18T02:41:08.801Z,17.90
2022-08-18T02:42:08.862Z,17.94
2022-08-18T02:43:08.701Z,18.00
2022-08-18T02:44:08.861Z,18.00
2022-08-18T02:45:08.670Z,18.03
2022-08-18T02:46:08.656Z,18.05
2022-08-18T02:47:09.017Z,18.09
2022-08-18T02:48:08.624Z,18.19
2022-08-18T02:49:08.679Z,18.28
2022-08-18T02:50:08.836Z,18.30
2022-08-18T02:51:08.677Z,18.34
2022-08-18T02:52:08.595Z,18.37
2022-08-18T02:53:09.016Z,18.37
2022-08-18T02:54:08.536Z,18.42
2022-08-18T02:55:08.539Z,18.46
2022-08-18T02:56:08.541Z,18.45
2022-08-18T02:57:08.700Z,18.45
2022-08-18T02:58:08.521Z,18.43
2022-08-18T02:59:08.770Z,18.41
2022-08-18T03:00:08.532Z,18.39
2022-08-18T03:01:08.551Z,18.39
2022-08-18T03:02:08.520Z,18.39
2022-08-18T03:03:08.702Z,18.36
2022-08-18T03:04:08.530Z,18.36
2022-08-18T03:05:08.481Z,18.34
2022-08-18T03:06:08.525Z,18.37
2022-08-18T03:07:08.392Z,18.42
2022-08-18T03:08:08.368Z,18.46
2022-08-18T03:09:08.364Z,18.42
2022-08-18T03:10:32.959Z,18.42
2022-08-18T03:11:08.365Z,18.41
2022-08-18T03:12:08.306Z,18.39
2022-08-18T03:13:08.355Z,18.37
2022-08-18T03:14:08.731Z,18.42
2022-08-18T03:15:08.428Z,18.43
2022-08-18T03:16:08.260Z,18.42
2022-08-18T03:17:08.381Z,18.41
2022-08-18T03:18:08.231Z,18.37
2022-08-18T03:19:08.380Z,18.36
2022-08-18T03:20:08.202Z,18.33
2022-08-18T03:21:08.430Z,18.34
2022-08-18T03:22:28.555Z,18.39
2022-08-18T03:23:09.754Z,18.39
2022-08-18T03:24:10.696Z,18.39
2022-08-18T03:25:08.122Z,18.36
2022-08-18T03:26:08.307Z,18.33
2022-08-18T03:27:08.116Z,18.30
2022-08-18T03:28:08.196Z,18.28
2022-08-18T03:29:08.075Z,18.26
2022-08-18T03:30:11.304Z,18.26
2022-08-18T03:31:08.035Z,18.26
2022-08-18T03:32:08.266Z,18.28
2022-08-18T03:33:08.035Z,18.33
2022-08-18T03:34:08.197Z,18.36
2022-08-18T03:35:08.037Z,18.34
2022-08-18T03:36:08.000Z,18.31
2022-08-18T03:37:08.131Z,18.30
2022-08-18T03:38:08.220Z,18.26
2022-08-18T03:39:08.042Z,18.23
2022-08-18T03:40:08.296Z,18.23
2022-08-18T03:41:08.031Z,18.23
2022-08-18T03:42:08.222Z,18.19
2022-08-18T03:43:49.600Z,18.21
2022-08-18T03:44:07.882Z,18.19
2022-08-18T03:45:13.340Z,18.19
2022-08-18T03:46:07.872Z,18.18
2022-08-18T03:47:08.052Z,18.16
2022-08-18T03:48:07.896Z,18.18
2022-08-18T03:49:07.875Z,18.16
2022-08-18T03:50:07.876Z,18.15
2022-08-18T03:51:08.036Z,18.13
2022-08-18T03:52:07.878Z,18.12
2022-08-18T03:53:07.755Z,18.11
2022-08-18T03:54:07.876Z,18.13
2022-08-18T03:55:07.788Z,18.18
2022-08-18T03:56:07.725Z,18.18
2022-08-18T03:57:07.723Z,18.23
2022-08-18T03:58:07.710Z,18.21
2022-08-18T03:59:07.727Z,18.26
2022-08-18T04:00:07.745Z,18.27
2022-08-18T04:01:07.791Z,18.31
2022-08-18T04:02:07.880Z,18.34
2022-08-18T04:03:07.719Z,18.42
2022-08-18T04:04:07.616Z,18.51
2022-08-18T04:05:07.711Z,18.55
2022-08-18T04:06:12.482Z,18.64
2022-08-18T04:07:07.725Z,18.71
2022-08-18T04:08:07.589Z,18.97
2022-08-18T04:09:07.714Z,19.15
2022-08-18T04:10:07.565Z,19.29
2022-08-18T04:11:07.736Z,19.45
2022-08-18T04:12:07.559Z,19.57
2022-08-18T04:13:07.512Z,19.67
2022-08-18T04:14:07.555Z,19.77
2022-08-18T04:15:07.488Z,19.92
2022-08-18T04:16:07.566Z,19.97
2022-08-18T04:17:07.792Z,20.03
2022-08-18T04:18:07.866Z,20.15
2022-08-18T04:19:07.461Z,20.26
2022-08-18T04:20:07.572Z,20.34
2022-08-18T04:21:07.401Z,20.42
2022-08-18T04:22:07.460Z,20.49
2022-08-18T04:23:07.419Z,20.55
2022-08-18T04:24:07.582Z,20.56
2022-08-18T04:25:07.421Z,20.58
2022-08-18T04:26:07.560Z,20.56
2022-08-18T04:27:07.497Z,20.60
2022-08-18T04:28:07.555Z,20.63
2022-08-18T04:29:07.406Z,20.66
2022-08-18T04:30:07.295Z,20.64
2022-08-18T04:31:09.208Z,20.63
2022-08-18T04:32:07.247Z,20.64
2022-08-18T04:33:07.465Z,20.66
2022-08-18T04:34:07.233Z,20.68
2022-08-18T04:35:10.090Z,20.68
2022-08-18T04:36:07.235Z,20.73
2022-08-18T04:37:07.421Z,20.75
2022-08-18T04:38:07.310Z,20.73
2022-08-18T04:39:07.172Z,20.73
2022-08-18T04:40:07.337Z,20.73
2022-08-18T04:41:07.140Z,20.74
2022-08-18T04:42:07.251Z,20.78
2022-08-18T04:43:07.100Z,20.78
2022-08-18T04:44:07.140Z,20.77
2022-08-18T04:45:07.061Z,20.75
2022-08-18T04:46:07.234Z,20.75
2022-08-18T04:47:07.086Z,20.75
2022-08-18T04:48:07.234Z,20.74
2022-08-18T04:49:07.107Z,20.71
2022-08-18T04:50:07.075Z,20.73
2022-08-18T04:51:07.076Z,20.71
2022-08-18T04:52:22.575Z,20.71
2022-08-18T04:53:07.096Z,20.70
2022-08-18T04:54:07.238Z,20.70
2022-08-18T04:55:07.136Z,20.67
2022-08-18T04:56:06.945Z,20.67
2022-08-18T04:57:07.101Z,20.64
2022-08-18T04:58:06.930Z,20.66
2022-08-18T04:59:07.080Z,20.64
2022-08-18T05:00:07.023Z,20.63
2022-08-18T05:01:07.167Z,20.64
2022-08-18T05:02:10.235Z,20.60
2022-08-18T05:03:06.850Z,20.60
2022-08-18T05:04:06.911Z,20.63
2022-08-18T05:05:06.811Z,20.63
2022-08-18T05:06:07.005Z,20.60
2022-08-18T05:07:06.794Z,20.66
2022-08-18T05:08:06.917Z,20.75
2022-08-18T05:09:06.758Z,20.85
2022-08-18T05:10:06.926Z,20.98
2022-08-18T05:11:06.756Z,21.03
2022-08-18T05:12:06.942Z,21.13
2022-08-18T05:13:06.755Z,21.25
2022-08-18T05:14:06.684Z,21.33
2022-08-18T05:15:06.758Z,21.48
2022-08-18T05:16:11.654Z,21.78
2022-08-18T05:17:06.771Z,22.26
2022-08-18T05:18:06.729Z,22.89
2022-08-18T05:19:06.750Z,23.52
2022-08-18T05:20:06.600Z,24.14
2022-08-18T05:21:06.760Z,24.62
2022-08-18T05:22:06.600Z,25.07
2022-08-18T05:23:06.640Z,25.39
2022-08-18T05:24:06.605Z,25.73
2022-08-18T05:25:06.530Z,26.10
2022-08-18T05:26:06.535Z,26.53
2022-08-18T05:27:06.535Z,27.03
2022-08-18T05:28:06.595Z,27.47
2022-08-18T05:29:18.969Z,27.91
2022-08-18T05:30:06.596Z,28.34
2022-08-18T05:31:08.628Z,28.64
2022-08-18T05:32:06.595Z,28.94
2022-08-18T05:33:06.435Z,29.13
2022-08-18T05:34:06.488Z,29.22
2022-08-18T05:35:06.451Z,29.22
2022-08-18T05:36:06.420Z,29.32
2022-08-18T05:37:06.439Z,29.62
2022-08-18T05:38:06.380Z,29.94
2022-08-18T05:39:06.363Z,29.94
2022-08-18T05:40:11.016Z,30.23
2022-08-18T05:41:06.444Z,30.27
2022-08-18T05:42:06.579Z,30.39
2022-08-18T05:43:06.440Z,30.56
2022-08-18T05:44:06.300Z,30.48
2022-08-18T05:45:06.529Z,30.62
2022-08-18T05:46:06.284Z,30.88
2022-08-18T05:47:06.275Z,31.04
2022-08-18T05:48:06.276Z,31.23
2022-08-18T05:49:06.427Z,31.30
2022-08-18T05:50:06.358Z,31.35
2022-08-18T05:51:06.437Z,31.44
2022-08-18T05:52:06.275Z,31.69
2022-08-18T05:53:13.320Z,31.89
2022-08-18T05:54:06.281Z,32.22
2022-08-18T05:55:06.239Z,32.46
2022-08-18T05:56:06.300Z,32.71
2022-08-18T05:57:06.150Z,32.73
2022-08-18T05:58:06.130Z,32.76
2022-08-18T05:59:06.130Z,32.79
2022-08-18T06:00:06.280Z,32.88
2022-08-18T06:01:06.189Z,33.03
2022-08-18T06:02:06.071Z,33.00
2022-08-18T06:03:06.139Z,33.16
2022-08-18T06:04:06.289Z,33.32
2022-08-18T06:05:06.130Z,33.29
2022-08-18T06:06:06.086Z,32.83
2022-08-18T06:07:06.125Z,32.83
2022-08-18T06:08:06.274Z,32.66
2022-08-18T06:09:06.116Z,33.09
2022-08-18T06:10:05.966Z,33.40
2022-08-18T06:11:06.141Z,33.57
2022-08-18T06:12:06.040Z,33.44
2022-08-18T06:13:05.944Z,33.81
2022-08-18T06:14:05.973Z,34.09
2022-08-18T06:15:06.407Z,34.40
2022-08-18T06:16:05.971Z,34.38
2022-08-18T06:17:06.188Z,34.46
2022-08-18T06:18:05.971Z,34.51
2022-08-18T06:19:05.853Z,34.38
2022-08-18T06:20:05.946Z,33.60
2022-08-18T06:21:05.844Z,33.63
2022-08-18T06:22:05.956Z,33.85
2022-08-18T06:23:05.885Z,33.70
2022-08-18T06:24:05.796Z,33.57
2022-08-18T06:25:05.785Z,33.54
2022-08-18T06:26:05.964Z,33.53
2022-08-18T06:27:05.797Z,33.69
2022-08-18T06:28:05.734Z,33.85
2022-08-18T06:29:05.888Z,33.94
2022-08-18T06:30:05.971Z,33.82
2022-08-18T06:31:05.810Z,33.87
2022-08-18T06:32:05.699Z,33.89
2022-08-18T06:33:05.790Z,34.02
2022-08-18T06:34:06.024Z,34.14
2022-08-18T06:35:05.660Z,34.22
2022-08-18T06:36:05.641Z,34.32
2022-08-18T06:37:05.804Z,34.28
2022-08-18T06:38:05.636Z,34.40
2022-08-18T06:39:05.795Z,34.50
2022-08-18T06:40:05.744Z,34.71
2022-08-18T06:41:05.604Z,34.19
2022-08-18T06:42:05.656Z,34.50
2022-08-18T06:43:05.565Z,34.79
2022-08-18T06:44:05.646Z,35.20
2022-08-18T06:45:05.780Z,35.60
2022-08-18T06:46:05.709Z,35.87
2022-08-18T06:47:05.542Z,36.11
2022-08-18T06:48:05.653Z,35.96
2022-08-18T06:49:05.800Z,35.94
2022-08-18T06:50:05.489Z,36.38
2022-08-18T06:51:05.821Z,36.33
2022-08-18T06:52:05.461Z,36.28
2022-08-18T06:53:05.470Z,36.47
2022-08-18T06:54:05.656Z,36.20
2022-08-18T06:55:05.486Z,35.61
2022-08-18T06:56:05.476Z,35.30
2022-08-18T06:57:05.465Z,34.63
2022-08-18T06:58:05.396Z,34.89
2022-08-18T06:59:05.475Z,35.03
2022-08-18T07:00:05.635Z,34.55
2022-08-18T07:01:05.621Z,34.19
2022-08-18T07:02:05.455Z,33.97
2022-08-18T07:03:05.339Z,33.76
2022-08-18T07:04:05.299Z,33.47
2022-08-18T07:05:05.321Z,33.16
2022-08-18T07:06:05.332Z,33.28
2022-08-18T07:07:05.553Z,33.19
2022-08-18T07:08:05.321Z,32.88
2022-08-18T07:09:05.270Z,32.76
2022-08-18T07:10:05.320Z,32.60
2022-08-18T07:11:05.496Z,32.26
2022-08-18T07:12:05.335Z,32.04
2022-08-18T07:13:05.306Z,31.79
2022-08-18T07:14:16.174Z,31.62
2022-08-18T07:15:05.476Z,31.50
2022-08-18T07:16:05.325Z,31.05
2022-08-18T07:17:05.156Z,30.85
2022-08-18T07:18:05.331Z,30.51
2022-08-18T07:19:05.236Z,30.14
2022-08-18T07:20:05.140Z,30.33
2022-08-18T07:21:05.187Z,30.69
2022-08-18T07:22:05.340Z,30.86
2022-08-18T07:23:08.084Z,31.35
2022-08-18T07:24:23.671Z,31.52
2022-08-18T07:25:05.701Z,31.81
2022-08-18T07:26:05.050Z,31.95
2022-08-18T07:27:05.150Z,32.16
2022-08-18T07:28:05.036Z,32.45
2022-08-18T07:29:05.016Z,32.68
2022-08-18T07:30:05.084Z,32.83
2022-08-18T07:31:16.442Z,32.93
2022-08-18T07:32:04.997Z,32.97
2022-08-18T07:33:05.169Z,33.04
2022-08-18T07:34:05.006Z,33.04
2022-08-18T07:35:05.167Z,33.01
2022-08-18T07:36:05.065Z,32.75
2022-08-18T07:37:04.928Z,32.45
2022-08-18T07:38:24.687Z,32.04
2022-08-18T07:39:05.449Z,31.63
2022-08-18T07:40:05.099Z,31.00
2022-08-18T07:41:05.053Z,30.59
2022-08-18T07:42:05.082Z,30.83
2022-08-18T07:43:04.876Z,30.96
2022-08-18T07:44:07.534Z,30.63
2022-08-18T07:45:04.856Z,30.33
2022-08-18T07:46:04.995Z,30.46
2022-08-18T07:47:04.848Z,30.65
2022-08-18T07:48:20.823Z,30.58
2022-08-18T07:49:05.550Z,30.49
2022-08-18T07:50:31.335Z,30.38
2022-08-18T07:51:08.539Z,30.24
2022-08-18T07:52:04.714Z,30.05
2022-08-18T07:53:04.855Z,29.80
2022-08-18T07:54:04.791Z,29.53
2022-08-18T07:55:04.841Z,29.10
2022-08-18T07:56:04.680Z,28.78
2022-08-18T07:57:04.840Z,28.68
2022-08-18T07:58:04.688Z,28.68
2022-08-18T07:59:04.926Z,28.50
2022-08-18T08:00:04.717Z,28.19
2022-08-18T08:01:04.651Z,28.08
2022-08-18T08:02:04.725Z,27.85
2022-08-18T08:03:04.595Z,27.60
2022-08-18T08:04:04.695Z,27.53
2022-08-18T08:05:04.657Z,27.81
2022-08-18T08:06:04.695Z,27.85
2022-08-18T08:08:04.675Z,28.12
2022-08-18T08:09:04.516Z,28.16
2022-08-18T08:10:04.699Z,28.38
2022-08-18T08:11:04.607Z,28.60
2022-08-18T08:12:04.480Z,28.82
2022-08-18T08:13:09.146Z,28.92
2022-08-18T08:14:04.450Z,28.93
2022-08-18T08:15:04.431Z,28.83
2022-08-18T08:16:04.409Z,28.82
2022-08-18T08:17:04.595Z,28.82
2022-08-18T08:18:04.402Z,28.74
2022-08-18T08:19:12.184Z,28.68
2022-08-18T08:20:04.386Z,28.53
2022-08-18T08:21:04.361Z,28.35
2022-08-18T08:22:04.447Z,28.23
2022-08-18T08:23:04.338Z,28.27
2022-08-18T08:24:04.355Z,28.28
2022-08-18T08:25:04.309Z,28.45
2022-08-18T08:26:04.354Z,28.59
2022-08-18T08:27:04.526Z,29.00
2022-08-18T08:28:04.456Z,29.50
2022-08-18T08:29:04.273Z,30.08
2022-08-18T08:30:04.362Z,30.61
2022-08-18T08:31:25.648Z,31.20
2022-08-18T08:32:04.371Z,31.45
2022-08-18T08:33:04.200Z,31.86
2022-08-18T08:34:06.099Z,32.19
2022-08-18T08:35:04.190Z,32.49
2022-08-18T08:36:04.175Z,32.53
2022-08-18T08:37:04.159Z,32.73
2022-08-18T08:38:17.443Z,32.81
2022-08-18T08:39:04.214Z,32.98
2022-08-18T08:40:04.271Z,33.23
2022-08-18T08:41:04.215Z,33.53
2022-08-18T08:42:29.711Z,33.77
2022-08-18T08:43:04.194Z,34.14
2022-08-18T08:44:04.045Z,34.28
2022-08-18T08:45:04.069Z,34.38
2022-08-18T08:46:04.121Z,34.40
2022-08-18T08:47:04.200Z,34.60
2022-08-18T08:48:08.780Z,34.98
2022-08-18T08:49:04.211Z,35.60
2022-08-18T08:50:04.040Z,35.74
2022-08-18T08:51:03.970Z,35.63
2022-08-18T08:52:04.021Z,35.79
2022-08-18T08:53:04.196Z,36.11
2022-08-18T08:54:04.035Z,35.74
2022-08-18T08:55:03.934Z,35.52
2022-08-18T08:56:04.035Z,35.04
2022-08-18T08:57:03.944Z,34.56
2022-08-18T08:58:03.964Z,33.98
2022-08-18T08:59:03.876Z,33.29
2022-08-18T09:00:04.035Z,33.39
2022-08-18T09:01:03.878Z,33.45
2022-08-18T09:02:03.977Z,33.67
2022-08-18T09:03:03.890Z,34.10
2022-08-18T09:04:04.119Z,34.26
2022-08-18T09:05:08.644Z,34.55
2022-08-18T09:06:04.040Z,34.69
2022-08-18T09:07:03.880Z,34.91
2022-08-18T09:08:03.771Z,35.25
2022-08-18T09:09:03.949Z,35.47
2022-08-18T09:10:04.066Z,35.66
2022-08-18T09:11:03.730Z,36.25
2022-08-18T09:12:03.715Z,36.69
2022-08-18T09:13:03.875Z,37.19
2022-08-18T09:14:03.836Z,37.31
2022-08-18T09:15:03.695Z,36.97
2022-08-18T09:16:13.769Z,36.32
2022-08-18T09:17:03.877Z,36.73
2022-08-18T09:18:03.720Z,36.76
2022-08-18T09:19:03.630Z,36.57
2022-08-18T09:20:03.819Z,36.59
2022-08-18T09:21:03.611Z,36.47
2022-08-18T09:22:03.604Z,36.62
2022-08-18T09:23:03.589Z,36.22
2022-08-18T09:24:03.570Z,36.29
2022-08-18T09:25:03.610Z,35.53
2022-08-18T09:26:03.725Z,35.91
2022-08-18T09:27:03.556Z,35.94
2022-08-18T09:28:11.710Z,36.06
2022-08-18T09:29:03.575Z,36.20
2022-08-18T09:30:03.516Z,36.43
2022-08-18T09:31:03.628Z,36.38
2022-08-18T09:32:03.480Z,36.32
2022-08-18T09:33:03.575Z,35.97
2022-08-18T09:34:09.715Z,35.88
2022-08-18T13:04:56.005Z,35.81
2022-08-18T13:05:01.336Z,32.45
2022-08-18T13:06:01.254Z,32.29
2022-08-18T13:07:06.052Z,32.26
2022-08-18T13:08:04.165Z,32.22
2022-08-18T13:09:01.200Z,32.16
2022-08-18T13:10:01.181Z,32.16
2022-08-18T13:11:15.374Z,32.17
2022-08-18T13:12:01.194Z,32.23
2022-08-18T13:13:01.151Z,32.12
2022-08-18T13:14:03.157Z,32.09
2022-08-18T13:15:01.109Z,32.15
2022-08-18T13:16:03.628Z,32.12
2022-08-18T13:17:01.314Z,32.08
2022-08-18T13:18:01.176Z,32.08
2022-08-18T13:19:01.077Z,32.05
2022-08-18T13:20:01.236Z,32.01
2022-08-18T13:21:01.036Z,31.98
2022-08-18T13:22:01.160Z,32.00
2022-08-18T13:23:00.995Z,31.92
2022-08-18T13:24:01.156Z,31.89
2022-08-18T13:25:01.012Z,31.82
2022-08-18T13:26:02.982Z,31.89
2022-08-18T13:27:01.001Z,31.81
2022-08-18T13:28:01.913Z,31.89
2022-08-18T13:29:01.013Z,32.01
2022-08-18T13:30:01.171Z,32.15
2022-08-18T13:31:01.001Z,32.05
2022-08-18T13:32:01.162Z,32.02
2022-08-18T13:33:06.100Z,32.02
2022-08-18T13:34:03.705Z,31.90
2022-08-18T13:35:02.739Z,31.85
2022-08-18T13:36:00.856Z,31.82
2022-08-18T13:37:00.997Z,31.70
2022-08-18T13:38:01.259Z,31.72
2022-08-18T13:39:00.999Z,31.70
2022-08-18T13:40:00.909Z,31.74
2022-08-18T13:41:01.055Z,31.81
2022-08-18T13:42:00.983Z,31.79
2022-08-18T13:43:01.021Z,31.82
2022-08-18T13:44:00.936Z,31.87
2022-08-18T13:45:23.237Z,31.90
2022-08-18T13:46:00.969Z,31.89
2022-08-18T13:47:00.712Z,31.82
2022-08-18T13:48:00.831Z,31.79
2022-08-18T13:49:00.671Z,31.72
2022-08-18T13:50:00.863Z,31.77
2022-08-18T13:51:01.271Z,31.79
2022-08-18T13:52:03.089Z,31.78
2022-08-18T13:53:00.664Z,31.66
2022-08-18T13:54:28.975Z,31.72
2022-08-18T13:55:00.639Z,31.74
2022-08-18T13:56:00.657Z,31.69
2022-08-18T13:57:00.679Z,31.73
2022-08-18T13:58:00.719Z,31.81
2022-08-18T13:59:00.575Z,31.79
2022-08-18T14:00:00.595Z,31.82
2022-08-18T14:02:00.764Z,31.87
2022-08-18T14:03:00.518Z,31.89
2022-08-18T14:04:00.524Z,31.81
2022-08-18T14:05:00.503Z,31.81
2022-08-18T14:06:01.574Z,31.85
2022-08-18T14:07:03.199Z,31.85
2022-08-18T14:08:00.603Z,31.78
2022-08-18T14:09:00.446Z,31.73
2022-08-18T14:10:04.489Z,31.63
2022-08-18T14:11:00.426Z,31.57
2022-08-18T14:12:00.610Z,31.50
2022-08-18T14:13:00.385Z,31.42
2022-08-18T14:14:00.367Z,31.26
2022-08-18T14:15:00.356Z,31.13
2022-08-18T14:16:00.558Z,31.04
2022-08-18T14:17:00.380Z,30.99
2022-08-18T14:18:00.381Z,30.95
2022-08-18T14:19:00.372Z,30.83
2022-08-18T14:20:00.293Z,30.77
2022-08-18T14:21:00.362Z,30.55
2022-08-18T14:22:00.352Z,30.38
2022-08-18T14:23:00.362Z,30.20
2022-08-18T14:24:00.234Z,30.11
2022-08-18T14:25:00.633Z,29.96
2022-08-18T14:26:00.453Z,29.89
2022-08-18T14:27:00.197Z,29.76
2022-08-18T14:28:03.864Z,29.62
2022-08-18T14:29:00.179Z,29.47
2022-08-18T14:30:00.348Z,29.32
2022-08-18T14:31:00.146Z,29.25
2022-08-18T14:32:00.196Z,28.97
2022-08-18T14:33:00.550Z,28.68
2022-08-18T14:34:03.932Z,28.35
2022-08-18T14:35:31.964Z,28.01
2022-08-18T14:36:06.498Z,27.68
2022-08-18T14:37:00.132Z,27.48
2022-08-18T14:38:00.221Z,27.28
2022-08-18T14:39:00.087Z,27.10
2022-08-18T14:40:00.388Z,26.93
2022-08-18T14:41:00.043Z,26.67
2022-08-18T14:42:03.028Z,26.37
2022-08-18T14:43:00.052Z,26.10
2022-08-18T14:44:13.453Z,25.95
2022-08-18T14:45:17.023Z,25.78
2022-08-18T14:45:59.950Z,25.63
2022-08-18T14:46:59.933Z,25.48
2022-08-18T14:48:00.005Z,25.30
2022-08-18T14:49:00.013Z,25.11
2022-08-18T14:49:59.951Z,24.86
2022-08-18T14:50:59.889Z,24.59
2022-08-18T14:51:59.879Z,24.29
2022-08-18T14:53:00.017Z,24.13
2022-08-18T14:53:59.928Z,24.06
2022-08-18T14:55:00.018Z,24.09
2022-08-18T14:55:59.859Z,24.10
2022-08-18T14:56:59.789Z,24.09
2022-08-18T14:57:59.917Z,24.09
2022-08-18T14:58:59.757Z,24.07
2022-08-18T14:59:59.861Z,24.07
2022-08-18T15:01:00.118Z,24.06
2022-08-18T15:01:59.852Z,23.96
2022-08-18T15:03:00.089Z,23.84
2022-08-18T15:03:59.756Z,23.76
2022-08-18T15:04:59.691Z,23.73
2022-08-18T15:05:59.651Z,23.69
2022-08-18T15:06:59.701Z,23.63
2022-08-18T15:07:59.636Z,23.59
2022-08-18T15:08:59.697Z,23.55
2022-08-18T15:10:15.547Z,23.54
2022-08-18T15:10:59.696Z,23.51
2022-08-18T15:11:59.585Z,23.49
2022-08-18T15:12:59.705Z,23.49
2022-08-18T15:13:59.585Z,23.49
2022-08-18T15:14:59.774Z,23.45
2022-08-18T15:16:01.879Z,23.42
2022-08-18T15:16:59.534Z,23.37
2022-08-18T15:17:59.539Z,23.34
2022-08-18T15:19:00.318Z,23.33
2022-08-18T15:20:01.383Z,23.34
2022-08-18T15:20:59.532Z,23.33
2022-08-18T15:21:59.530Z,23.33
2022-08-18T15:22:59.452Z,23.37
2022-08-18T15:23:59.521Z,23.39
2022-08-18T15:24:59.403Z,23.44
2022-08-18T15:25:59.557Z,23.45
2022-08-18T15:27:05.670Z,23.48
2022-08-18T15:27:59.382Z,23.48
2022-08-18T15:29:00.725Z,23.49
2022-08-18T15:29:59.539Z,23.49
2022-08-18T15:32:05.237Z,23.54
2022-08-18T15:32:59.462Z,23.56
2022-08-18T15:33:59.539Z,23.58
2022-08-18T15:34:59.377Z,23.56
2022-08-18T15:35:59.336Z,23.59
2022-08-18T15:37:09.562Z,23.63
2022-08-18T15:37:59.235Z,23.67
2022-08-18T15:38:59.217Z,23.70
2022-08-18T15:39:59.344Z,23.74
2022-08-18T15:40:59.376Z,23.73
2022-08-18T15:41:59.871Z,23.76
2022-08-18T15:42:59.184Z,23.74
2022-08-18T15:43:59.223Z,23.76
2022-08-18T15:44:59.383Z,23.81
2022-08-18T15:45:59.153Z,23.84
2022-08-18T15:46:59.114Z,23.92
2022-08-18T15:47:59.301Z,23.95
2022-08-18T15:48:59.092Z,24.01
2022-08-18T15:49:59.215Z,24.10
2022-08-18T15:51:11.564Z,24.21
2022-08-18T15:51:59.220Z,24.31
2022-08-18T15:52:59.062Z,24.41
2022-08-18T15:53:59.302Z,24.48
2022-08-18T15:55:02.303Z,24.55
2022-08-18T15:56:04.330Z,24.66
2022-08-18T15:56:59.061Z,24.82
2022-08-18T15:57:59.122Z,24.94
2022-08-18T15:59:00.613Z,25.01
2022-08-18T15:59:59.333Z,25.07
2022-08-18T16:00:59.151Z,25.18
2022-08-18T16:01:59.026Z,25.19
2022-08-18T16:02:59.078Z,25.26
2022-08-18T16:03:58.959Z,25.36
2022-08-18T16:05:01.021Z,25.48
2022-08-18T16:05:59.249Z,25.52
2022-08-18T16:06:59.072Z,25.52
2022-08-18T16:07:58.911Z,25.46
2022-08-18T16:08:58.833Z,25.43
2022-08-18T16:09:58.904Z,25.41
2022-08-18T16:10:59.086Z,25.36
2022-08-18T16:12:00.505Z,25.34
2022-08-18T16:12:58.804Z,25.33
2022-08-18T16:13:59.183Z,25.33
2022-08-18T16:14:58.821Z,25.34
2022-08-18T16:15:58.736Z,25.31
2022-08-18T16:16:58.757Z,25.25
2022-08-18T16:17:58.791Z,25.18
2022-08-18T16:18:58.763Z,25.07
2022-08-18T16:19:58.722Z,25.04
2022-08-18T16:20:58.842Z,25.00
2022-08-18T16:21:58.911Z,24.94
2022-08-18T16:22:58.763Z,24.93
2022-08-18T16:23:58.663Z,24.97